Аэропорт: Минеральные Воды. Минеральные Воды

ICAO: URMM

METAR:
2018/05/20 23:00
URMM 202300Z 31004MPS 9999 NSC 15/13 Q1013 R30/090070 NOSIG RMK QFE732/0976
METAR:
2018/05/20 21:21
TAF URMM 201958Z 2021/2121 28003G08MPS 9999 SCT030 TX26/2112Z TN14/2102Z 
      TEMPO 2021/2106 3100 -SHRA BKN011 BKN030CB 
      TEMPO 2106/2121 26005G12MPS 3100 -SHRA BKN011 BKN030CB